Time;durP1;ratioP1;P1;durP2;ratioP2;P2;SDS_P1;SDS_P2;PMS_P1;PMS_P2;Temp;Humidity;BMP_temperature;BMP_pressure;BME280_temperature;BME280_humidity;BME280_pressure;Samples;Min_cycle;Max_cycle;Signal;HPM_P1;HPM_P2
2022/08/27 00:00:47;;;;;;;;;;;19.00;84.90;;;;;;5022798;28;19917;-80
2022/08/27 00:03:12;;;;;;;;;;;19.00;85.30;;;;;;5002708;28;19920;-80
2022/08/27 00:05:38;;;;;;;;;;;18.90;85.60;;;;;;5008057;28;20015;-79
2022/08/27 00:08:05;;;;;;;;;;;19.00;85.30;;;;;;5018140;28;19921;-79
2022/08/27 00:10:31;;;;;;;;;;;19.00;85.10;;;;;;5005186;28;19921;-77
2022/08/27 00:12:56;;;;;;;;;;;19.00;84.80;;;;;;5007746;28;19924;-78
2022/08/27 00:15:22;;;;;;;;;;;19.10;83.60;;;;;;5011356;28;19913;-78
2022/08/27 00:17:48;;;;;;;;;;;19.20;83.90;;;;;;5014037;28;19917;-80
2022/08/27 00:20:14;;;;;;;;;;;19.10;83.60;;;;;;5010859;28;19917;-79
2022/08/27 00:22:40;;;;;;;;;;;19.00;84.10;;;;;;5008641;28;20352;-78
2022/08/27 00:25:06;;;;;;;;;;;19.00;84.20;;;;;;5028860;28;19956;-79
2022/08/27 00:27:31;;;;;;;;;;;19.00;83.50;;;;;;5024696;28;19928;-80
2022/08/27 00:29:57;;;;;;;;;;;18.90;83.60;;;;;;5006855;28;19913;-79
2022/08/27 00:32:22;;;;;;;;;;;18.90;84.00;;;;;;5024195;28;19913;-80
2022/08/27 00:34:47;;;;;;;;;;;18.80;84.50;;;;;;5025958;28;19920;-79
2022/08/27 00:37:13;;;;;;;;;;;18.90;84.50;;;;;;5023545;28;19983;-79
2022/08/27 00:39:38;;;;;;;;;;;18.90;84.40;;;;;;5028356;28;19920;-78
2022/08/27 00:42:05;;;;;;;;;;;18.80;84.90;;;;;;5022057;28;20221;-78
2022/08/27 00:44:30;;;;;;;;;;;19.00;84.80;;;;;;5027641;28;19952;-78
2022/08/27 00:47:01;;;;;;;;;;;18.90;85.00;;;;;;5028897;28;19948;-79
2022/08/27 00:49:30;;;;;;;;;;;18.90;85.00;;;;;;5029389;28;20059;-79
2022/08/27 00:52:04;;;;;;;;;;;18.80;85.30;;;;;;5028516;28;19913;-78
2022/08/27 00:54:30;;;;;;;;;;;18.80;85.20;;;;;;5029228;28;19913;-79
2022/08/27 00:56:56;;;;;;;;;;;18.80;84.60;;;;;;5007201;28;19967;-80
2022/08/27 00:59:23;;;;;;;;;;;18.70;85.00;;;;;;5027951;28;19913;-80
2022/08/27 01:04:34;;;;;;;;;;;18.50;86.30;;;;;;5031165;28;19928;-80
2022/08/27 01:07:00;;;;;;;;;;;18.60;85.90;;;;;;5032200;28;20349;-80
2022/08/27 01:09:26;;;;;;;;;;;18.50;86.10;;;;;;5033390;28;19957;-81
2022/08/27 01:11:51;;;;;;;;;;;18.50;85.80;;;;;;5030883;28;19932;-79
2022/08/27 01:14:17;;;;;;;;;;;18.60;85.30;;;;;;5021600;28;19964;-79
2022/08/27 01:16:46;;;;;;;;;;;18.50;85.50;;;;;;5029710;28;20422;-80
2022/08/27 01:19:19;;;;;;;;;;;18.50;85.30;;;;;;5029064;28;19909;-81
2022/08/27 01:21:49;;;;;;;;;;;18.40;85.80;;;;;;5014226;28;20377;-80
2022/08/27 01:24:24;;;;;;;;;;;18.40;86.10;;;;;;5009608;28;19937;-80
2022/08/27 01:26:49;;;;;;;;;;;18.50;85.70;;;;;;5014342;28;19967;-80
2022/08/27 01:29:16;;;;;;;;;;;18.40;86.00;;;;;;5012100;28;19913;-80
2022/08/27 01:31:41;;;;;;;;;;;18.60;85.40;;;;;;5027548;28;19976;-80
2022/08/27 01:34:07;;;;;;;;;;;18.50;86.10;;;;;;5011837;28;20012;-81
2022/08/27 01:36:32;;;;;;;;;;;18.40;86.10;;;;;;5013718;28;19913;-81
2022/08/27 01:38:58;;;;;;;;;;;18.50;86.00;;;;;;5025647;28;19958;-80
2022/08/27 01:41:24;;;;;;;;;;;18.50;85.40;;;;;;5010621;28;19966;-80
2022/08/27 01:43:50;;;;;;;;;;;18.40;86.10;;;;;;5007661;28;20424;-80
2022/08/27 01:46:19;;;;;;;;;;;18.40;86.50;;;;;;5013337;28;19917;-79
2022/08/27 01:48:45;;;;;;;;;;;18.30;86.70;;;;;;5007365;28;19971;-80
2022/08/27 01:51:10;;;;;;;;;;;18.30;86.60;;;;;;5032880;28;20007;-80
2022/08/27 01:53:36;;;;;;;;;;;18.50;86.00;;;;;;5004869;28;19917;-80
2022/08/27 01:56:01;;;;;;;;;;;18.40;86.60;;;;;;5030608;28;19924;-81
2022/08/27 01:58:28;;;;;;;;;;;18.50;85.60;;;;;;5012903;28;19913;-80
2022/08/27 02:00:55;;;;;;;;;;;18.50;85.20;;;;;;5010590;28;19932;-80
2022/08/27 02:03:21;;;;;;;;;;;18.40;85.90;;;;;;5012666;28;19913;-80
2022/08/27 02:05:46;;;;;;;;;;;18.30;86.20;;;;;;5031264;28;19924;-80
2022/08/27 02:08:14;;;;;;;;;;;18.30;86.20;;;;;;5029924;28;20282;-80
2022/08/27 02:10:40;;;;;;;;;;;18.40;86.00;;;;;;5040569;22;19937;-79
2022/08/27 02:13:07;;;;;;;;;;;18.40;85.70;;;;;;5046366;28;20007;-79
2022/08/27 02:15:33;;;;;;;;;;;18.30;86.90;;;;;;5040039;28;19925;-79
2022/08/27 02:17:59;;;;;;;;;;;18.20;87.20;;;;;;5028899;28;19917;-80
2022/08/27 02:20:25;;;;;;;;;;;18.10;87.20;;;;;;5003361;28;19914;-78
2022/08/27 02:22:51;;;;;;;;;;;18.10;87.20;;;;;;4995989;28;21395;-79
2022/08/27 02:25:19;;;;;;;;;;;18.20;86.10;;;;;;5005732;28;19968;-79
2022/08/27 02:27:45;;;;;;;;;;;18.10;86.90;;;;;;4985647;28;19917;-79
2022/08/27 02:30:13;;;;;;;;;;;18.10;87.00;;;;;;5011472;28;20004;-79
2022/08/27 02:32:39;;;;;;;;;;;18.20;87.10;;;;;;5014083;28;20000;-80
2022/08/27 02:35:05;;;;;;;;;;;18.20;86.50;;;;;;5017922;28;19977;-79
2022/08/27 02:37:31;;;;;;;;;;;18.30;86.20;;;;;;5003975;28;20110;-79
2022/08/27 02:39:56;;;;;;;;;;;18.30;85.90;;;;;;5010914;28;19948;-80
2022/08/27 02:42:22;;;;;;;;;;;18.20;85.60;;;;;;4997720;28;19920;-79
2022/08/27 02:44:47;;;;;;;;;;;18.10;86.50;;;;;;4996554;28;19913;-79
2022/08/27 02:47:14;;;;;;;;;;;18.10;86.50;;;;;;5011113;28;19939;-80
2022/08/27 02:49:39;;;;;;;;;;;18.10;87.20;;;;;;5012016;28;19929;-79
2022/08/27 02:52:05;;;;;;;;;;;18.10;86.00;;;;;;5001223;28;19918;-79
2022/08/27 02:54:31;;;;;;;;;;;18.10;86.80;;;;;;5000275;28;20052;-80
2022/08/27 02:56:56;;;;;;;;;;;18.20;85.90;;;;;;4985497;28;19964;-79
2022/08/27 02:59:22;;;;;;;;;;;18.10;86.20;;;;;;5001395;28;19913;-79
2022/08/27 03:01:47;;;;;;;;;;;18.20;85.70;;;;;;5004543;28;19913;-80
2022/08/27 03:04:13;;;;;;;;;;;18.10;86.40;;;;;;5004990;28;19913;-79
2022/08/27 03:06:39;;;;;;;;;;;18.10;86.20;;;;;;4991980;28;19918;-80
2022/08/27 03:09:05;;;;;;;;;;;18.20;86.20;;;;;;4984330;28;20538;-78
2022/08/27 03:11:31;;;;;;;;;;;18.20;86.10;;;;;;5009593;28;20004;-80
2022/08/27 03:13:57;;;;;;;;;;;18.10;85.70;;;;;;5012126;28;20265;-80
2022/08/27 03:16:23;;;;;;;;;;;18.10;85.70;;;;;;5003053;28;19946;-79
2022/08/27 03:18:49;;;;;;;;;;;18.10;85.80;;;;;;5003239;28;21016;-80
2022/08/27 03:21:19;;;;;;;;;;;18.10;85.20;;;;;;4985027;28;20407;-80
2022/08/27 03:23:45;;;;;;;;;;;18.20;86.00;;;;;;5009402;28;20316;-81
2022/08/27 03:26:11;;;;;;;;;;;18.10;85.80;;;;;;5009369;28;19948;-80
2022/08/27 03:28:36;;;;;;;;;;;18.20;85.90;;;;;;4999713;28;19913;-80
2022/08/27 03:31:04;;;;;;;;;;;18.20;86.00;;;;;;5010414;28;19913;-79
2022/08/27 03:33:31;;;;;;;;;;;18.10;86.70;;;;;;5000514;28;19918;-80
2022/08/27 03:35:57;;;;;;;;;;;18.10;86.50;;;;;;4999253;28;19914;-81
2022/08/27 03:38:22;;;;;;;;;;;18.10;86.40;;;;;;5003813;28;20016;-81
2022/08/27 03:40:48;;;;;;;;;;;18.20;86.60;;;;;;4999150;28;19914;-80
2022/08/27 03:43:15;;;;;;;;;;;18.20;86.10;;;;;;4988962;28;20440;-80
2022/08/27 03:45:44;;;;;;;;;;;18.20;85.80;;;;;;5003062;28;19979;-81
2022/08/27 03:48:11;;;;;;;;;;;18.20;85.60;;;;;;5002989;28;19913;-81
2022/08/27 03:50:40;;;;;;;;;;;18.10;86.20;;;;;;5000147;28;19922;-80
2022/08/27 03:53:06;;;;;;;;;;;18.30;85.30;;;;;;5012638;28;19914;-80
2022/08/27 03:55:32;;;;;;;;;;;18.20;85.20;;;;;;5000214;28;19960;-80
2022/08/27 03:57:57;;;;;;;;;;;18.10;84.90;;;;;;4984582;28;20244;-81
2022/08/27 04:00:24;;;;;;;;;;;18.20;84.70;;;;;;4992837;28;19922;-80
2022/08/27 04:02:50;;;;;;;;;;;18.10;85.00;;;;;;4988491;28;19913;-81
2022/08/27 04:05:16;;;;;;;;;;;18.00;85.50;;;;;;4988062;28;19914;-80
2022/08/27 04:07:41;;;;;;;;;;;18.00;86.10;;;;;;5006939;28;19913;-80
2022/08/27 04:10:08;;;;;;;;;;;18.00;86.50;;;;;;5007285;28;19924;-80
2022/08/27 04:12:34;;;;;;;;;;;18.00;85.90;;;;;;4980500;28;19920;-80
2022/08/27 04:14:59;;;;;;;;;;;18.00;86.20;;;;;;5004324;28;20288;-79
2022/08/27 04:17:25;;;;;;;;;;;18.00;85.40;;;;;;5011343;28;20376;-79
2022/08/27 04:19:51;;;;;;;;;;;18.20;84.90;;;;;;5007556;28;20571;-80
2022/08/27 04:22:16;;;;;;;;;;;18.20;84.50;;;;;;4993879;28;19948;-80
2022/08/27 04:24:42;;;;;;;;;;;18.10;84.50;;;;;;5008826;28;19955;-80
2022/08/27 04:27:07;;;;;;;;;;;18.10;84.70;;;;;;4994060;28;19921;-80
2022/08/27 04:29:33;;;;;;;;;;;18.10;84.70;;;;;;4987398;28;20360;-78
2022/08/27 04:31:59;;;;;;;;;;;18.10;85.20;;;;;;4997075;28;19921;-81
2022/08/27 04:34:24;;;;;;;;;;;18.00;85.20;;;;;;4985976;28;19983;-80
2022/08/27 04:36:50;;;;;;;;;;;18.00;85.50;;;;;;4998279;28;20009;-80
2022/08/27 04:39:15;;;;;;;;;;;18.00;85.30;;;;;;4986393;28;19913;-80
2022/08/27 04:41:41;;;;;;;;;;;18.00;85.60;;;;;;5015841;28;19913;-80
2022/08/27 04:44:08;;;;;;;;;;;18.00;85.60;;;;;;4987157;28;19913;-79
2022/08/27 04:46:35;;;;;;;;;;;18.00;85.10;;;;;;5007129;28;20365;-80
2022/08/27 04:49:02;;;;;;;;;;;17.90;85.60;;;;;;4995178;28;19913;-79
2022/08/27 04:51:28;;;;;;;;;;;18.00;85.40;;;;;;4984602;28;19918;-78
2022/08/27 04:53:55;;;;;;;;;;;17.80;86.00;;;;;;5016401;28;19935;-80
2022/08/27 04:56:21;;;;;;;;;;;17.80;85.80;;;;;;4988714;28;20012;-80
2022/08/27 04:58:47;;;;;;;;;;;17.80;86.70;;;;;;5007197;28;20006;-80
2022/08/27 05:01:16;;;;;;;;;;;17.80;86.80;;;;;;5008259;28;19913;-80
2022/08/27 05:03:42;;;;;;;;;;;17.80;87.40;;;;;;4998499;28;19976;-80
2022/08/27 05:06:07;;;;;;;;;;;17.80;87.30;;;;;;5003056;28;20393;-80
2022/08/27 05:08:33;;;;;;;;;;;17.80;87.40;;;;;;4984019;28;19920;-79
2022/08/27 05:10:59;;;;;;;;;;;18.10;85.50;;;;;;4998560;28;19925;-79
2022/08/27 05:13:24;;;;;;;;;;;18.00;85.80;;;;;;4989831;28;19925;-79
2022/08/27 05:15:57;;;;;;;;;;;17.90;86.30;;;;;;5000133;28;19917;-79
2022/08/27 05:18:23;;;;;;;;;;;17.90;87.00;;;;;;4981957;28;19933;-79
2022/08/27 05:20:48;;;;;;;;;;;17.80;87.30;;;;;;5000220;28;19921;-79
2022/08/27 05:23:16;;;;;;;;;;;18.00;86.80;;;;;;5001522;28;20411;-78
2022/08/27 05:25:42;;;;;;;;;;;18.10;86.40;;;;;;5006886;28;19917;-80
2022/08/27 05:28:08;;;;;;;;;;;18.00;86.10;;;;;;4985146;28;19925;-79
2022/08/27 05:30:35;;;;;;;;;;;18.00;86.20;;;;;;4996107;28;20384;-78
2022/08/27 05:33:01;;;;;;;;;;;18.10;85.50;;;;;;4985689;28;19917;-80
2022/08/27 05:35:27;;;;;;;;;;;18.00;86.30;;;;;;5011007;28;19971;-80
2022/08/27 05:37:53;;;;;;;;;;;18.00;86.80;;;;;;5003894;28;20007;-79
2022/08/27 05:40:18;;;;;;;;;;;18.10;86.40;;;;;;5015913;28;19920;-79
2022/08/27 05:42:44;;;;;;;;;;;18.10;86.60;;;;;;5028941;28;19921;-79
2022/08/27 05:45:09;;;;;;;;;;;18.20;86.30;;;;;;5007511;28;19929;-78
2022/08/27 05:47:35;;;;;;;;;;;18.10;85.60;;;;;;5017313;28;19921;-79
2022/08/27 05:50:02;;;;;;;;;;;18.10;85.90;;;;;;5001376;28;20004;-79
2022/08/27 05:52:28;;;;;;;;;;;18.10;86.20;;;;;;5021898;28;19993;-80
2022/08/27 05:54:53;;;;;;;;;;;18.10;86.30;;;;;;5010310;28;19941;-79
2022/08/27 05:57:19;;;;;;;;;;;18.10;86.10;;;;;;4997993;28;20373;-80
2022/08/27 06:02:28;;;;;;;;;;;18.20;86.20;;;;;;5004658;28;19920;-80
2022/08/27 06:04:54;;;;;;;;;;;18.20;85.80;;;;;;4982696;28;20012;-80
2022/08/27 06:07:20;;;;;;;;;;;18.10;86.40;;;;;;4993626;28;19964;-81
2022/08/27 06:09:45;;;;;;;;;;;18.10;86.20;;;;;;5002509;28;19921;-80
2022/08/27 06:12:11;;;;;;;;;;;18.20;86.20;;;;;;4984304;28;20372;-80
2022/08/27 06:14:37;;;;;;;;;;;18.20;85.90;;;;;;5002128;28;19924;-81
2022/08/27 06:17:02;;;;;;;;;;;18.30;85.20;;;;;;5007319;28;19921;-81
2022/08/27 06:19:28;;;;;;;;;;;18.30;85.30;;;;;;4989633;28;19913;-81
2022/08/27 06:21:54;;;;;;;;;;;18.30;85.00;;;;;;5000163;28;19914;-81
2022/08/27 06:24:20;;;;;;;;;;;18.30;84.50;;;;;;4995134;28;19918;-80
2022/08/27 06:26:46;;;;;;;;;;;18.30;85.00;;;;;;4984048;28;20335;-80
2022/08/27 06:29:11;;;;;;;;;;;18.40;85.10;;;;;;5002772;28;19922;-80
2022/08/27 06:31:37;;;;;;;;;;;18.30;84.80;;;;;;4995727;28;19982;-79
2022/08/27 06:34:05;;;;;;;;;;;18.50;84.20;;;;;;4979475;28;20007;-81
2022/08/27 06:36:31;;;;;;;;;;;18.40;84.60;;;;;;5003406;28;20331;-80
2022/08/27 06:38:58;;;;;;;;;;;18.30;84.70;;;;;;5005130;28;19921;-80
2022/08/27 06:41:28;;;;;;;;;;;18.40;84.20;;;;;;4992286;28;19932;-81
2022/08/27 06:43:54;;;;;;;;;;;18.40;84.10;;;;;;5004625;28;19918;-80
2022/08/27 06:46:23;;;;;;;;;;;18.60;83.20;;;;;;5012600;28;20461;-80
2022/08/27 06:48:52;;;;;;;;;;;18.70;82.70;;;;;;5006457;28;19933;-80
2022/08/27 06:51:19;;;;;;;;;;;18.60;82.30;;;;;;4978941;28;19924;-81
2022/08/27 06:53:46;;;;;;;;;;;18.60;82.60;;;;;;4981152;28;19917;-81
2022/08/27 06:56:12;;;;;;;;;;;18.60;83.00;;;;;;5003411;28;19949;-81
2022/08/27 06:58:38;;;;;;;;;;;18.50;83.60;;;;;;5004480;28;20111;-81
2022/08/27 07:01:30;;;;;;;;;;;18.50;83.70;;;;;;5004006;28;20400;-81
2022/08/27 07:03:57;;;;;;;;;;;18.60;83.10;;;;;;4994700;28;19981;-81
2022/08/27 07:06:23;;;;;;;;;;;18.80;82.80;;;;;;4984285;28;20336;-80
2022/08/27 07:08:49;;;;;;;;;;;18.80;82.40;;;;;;4997057;28;19921;-80
2022/08/27 07:11:16;;;;;;;;;;;18.80;82.70;;;;;;4995321;28;21255;-81
2022/08/27 07:13:44;;;;;;;;;;;19.00;81.50;;;;;;5001544;28;19920;-81
2022/08/27 07:16:11;;;;;;;;;;;19.00;81.50;;;;;;4991244;28;19965;-81
2022/08/27 07:18:37;;;;;;;;;;;19.10;81.50;;;;;;4999126;28;19917;-82
2022/08/27 07:21:03;;;;;;;;;;;19.30;80.50;;;;;;4994399;28;20373;-80
2022/08/27 07:23:29;;;;;;;;;;;19.40;79.60;;;;;;4997885;28;19957;-79
2022/08/27 07:25:55;;;;;;;;;;;19.30;79.80;;;;;;5015078;28;19983;-82
2022/08/27 07:28:20;;;;;;;;;;;19.30;79.90;;;;;;5014004;28;19913;-82
2022/08/27 07:30:46;;;;;;;;;;;19.50;79.20;;;;;;5014726;28;20363;-80
2022/08/27 07:33:11;;;;;;;;;;;19.60;78.40;;;;;;5000634;28;19941;-82
2022/08/27 07:35:37;;;;;;;;;;;19.70;78.00;;;;;;4988657;28;19913;-83
2022/08/27 07:38:02;;;;;;;;;;;19.60;77.70;;;;;;5009355;28;19914;-81
2022/08/27 07:40:28;;;;;;;;;;;19.60;78.80;;;;;;5001424;28;19920;-83
2022/08/27 07:45:45;;;;;;;;;;;19.60;79.20;;;;;;5000075;28;19925;-84
2022/08/27 07:48:11;;;;;;;;;;;19.90;78.40;;;;;;4999745;28;21116;-83
2022/08/27 07:50:36;;;;;;;;;;;19.90;76.60;;;;;;5000371;28;19924;-83
2022/08/27 07:53:01;;;;;;;;;;;19.80;76.90;;;;;;4986445;28;19922;-82
2022/08/27 07:55:27;;;;;;;;;;;19.90;77.90;;;;;;5018394;28;19932;-83
2022/08/27 07:57:53;;;;;;;;;;;19.90;77.90;;;;;;5007435;28;20289;-80
2022/08/27 08:00:20;;;;;;;;;;;20.00;78.60;;;;;;5002225;28;19940;-82
2022/08/27 08:02:46;;;;;;;;;;;20.00;76.80;;;;;;5002359;28;19967;-81
2022/08/27 08:05:13;;;;;;;;;;;20.00;76.50;;;;;;4992244;28;19913;-84
2022/08/27 08:07:39;;;;;;;;;;;20.00;76.70;;;;;;4987526;28;19922;-84
2022/08/27 08:10:06;;;;;;;;;;;19.80;76.60;;;;;;5018536;22;19916;-78
2022/08/27 08:12:33;;;;;;;;;;;19.90;77.00;;;;;;5050569;28;19924;-79
2022/08/27 08:14:58;;;;;;;;;;;19.90;76.80;;;;;;5053149;28;19913;-80
2022/08/27 08:17:24;;;;;;;;;;;19.90;76.00;;;;;;5050031;28;19981;-80
2022/08/27 08:19:50;;;;;;;;;;;20.10;74.20;;;;;;5051170;28;19924;-80
2022/08/27 08:22:16;;;;;;;;;;;20.00;75.00;;;;;;5067031;28;19913;-80
2022/08/27 08:24:41;;;;;;;;;;;19.90;75.50;;;;;;5051453;28;19955;-80
2022/08/27 08:27:07;;;;;;;;;;;19.90;74.80;;;;;;5051696;28;19927;-80
2022/08/27 08:29:32;;;;;;;;;;;19.90;74.20;;;;;;5050033;28;20293;-80
2022/08/27 08:31:58;;;;;;;;;;;19.70;75.50;;;;;;5046713;28;19963;-80
2022/08/27 08:34:23;;;;;;;;;;;19.80;75.50;;;;;;5052929;28;19924;-81
2022/08/27 08:36:49;;;;;;;;;;;19.80;75.80;;;;;;5047536;28;20398;-79
2022/08/27 08:39:17;;;;;;;;;;;19.80;75.90;;;;;;5049906;28;20392;-79
2022/08/27 08:41:47;;;;;;;;;;;19.90;74.60;;;;;;5050627;28;20288;-79
2022/08/27 08:44:21;;;;;;;;;;;19.80;73.60;;;;;;5051038;28;19929;-79
2022/08/27 08:46:58;;;;;;;;;;;19.50;73.70;;;;;;5049978;28;19921;-79
2022/08/27 08:49:37;;;;;;;;;;;19.50;74.80;;;;;;5051164;28;20292;-79
2022/08/27 08:52:14;;;;;;;;;;;19.40;74.10;;;;;;5050675;28;19913;-79
2022/08/27 08:54:39;;;;;;;;;;;19.50;75.90;;;;;;5046476;28;19932;-79
2022/08/27 08:57:05;;;;;;;;;;;19.60;75.60;;;;;;5050776;28;19945;-79
2022/08/27 08:59:35;;;;;;;;;;;19.80;76.10;;;;;;5052085;28;20336;-79
2022/08/27 09:02:01;;;;;;;;;;;19.90;73.70;;;;;;5046904;28;19920;-79
2022/08/27 09:04:27;;;;;;;;;;;19.90;73.50;;;;;;5052563;28;19913;-79
2022/08/27 09:06:55;;;;;;;;;;;20.10;72.40;;;;;;5049597;28;19928;-79
2022/08/27 09:09:42;;;;;;;;;;;20.30;72.70;;;;;;5050473;28;19936;-79
2022/08/27 09:12:14;;;;;;;;;;;20.40;70.70;;;;;;5048408;28;20011;-80
2022/08/27 09:14:48;;;;;;;;;;;20.30;70.60;;;;;;5044415;28;19928;-82
2022/08/27 09:17:14;;;;;;;;;;;20.60;69.40;;;;;;5048602;28;20250;-82
2022/08/27 09:19:39;;;;;;;;;;;20.50;69.40;;;;;;5035856;28;19928;-82
2022/08/27 09:22:09;;;;;;;;;;;20.50;70.30;;;;;;5041554;28;19928;-83
2022/08/27 09:24:35;;;;;;;;;;;20.60;70.40;;;;;;5045000;28;20337;-82
2022/08/27 09:27:01;;;;;;;;;;;20.70;71.20;;;;;;5046215;28;19936;-81
2022/08/27 09:29:27;;;;;;;;;;;20.90;70.10;;;;;;5046538;28;19944;-80
2022/08/27 09:31:54;;;;;;;;;;;20.90;69.80;;;;;;5048126;28;19967;-81
2022/08/27 09:34:20;;;;;;;;;;;21.00;68.80;;;;;;5047914;28;19920;-81
2022/08/27 09:37:21;;;;;;;;;;;21.00;69.20;;;;;;5047314;28;19939;-81
2022/08/27 09:40:03;;;;;;;;;;;21.10;69.90;;;;;;5001205;28;19917;-79
2022/08/27 09:42:51;;;;;;;;;;;21.00;69.00;;;;;;5035741;28;20273;-82
2022/08/27 09:45:24;;;;;;;;;;;21.10;66.70;;;;;;5061082;28;19928;-81
2022/08/27 09:47:51;;;;;;;;;;;21.20;67.90;;;;;;5050983;28;19916;-80
2022/08/27 09:50:18;;;;;;;;;;;21.10;68.30;;;;;;5049754;28;20423;-80
2022/08/27 09:52:54;;;;;;;;;;;21.10;68.20;;;;;;5052254;28;19966;-80
2022/08/27 09:55:29;;;;;;;;;;;21.20;67.50;;;;;;5049475;28;19947;-80
2022/08/27 09:57:58;;;;;;;;;;;21.10;67.40;;;;;;5064140;22;20278;-81
2022/08/27 10:00:42;;;;;;;;;;;21.20;66.70;;;;;;5024888;28;19924;-79
2022/08/27 10:03:21;;;;;;;;;;;21.10;67.40;;;;;;5052057;28;19966;-81
2022/08/27 10:05:56;;;;;;;;;;;21.00;68.00;;;;;;5022289;28;19917;-81
2022/08/27 10:09:02;;;;;;;;;;;21.10;67.30;;;;;;5027992;28;19917;-80
2022/08/27 10:11:31;;;;;;;;;;;21.10;66.70;;;;;;4973079;28;19914;-81
2022/08/27 10:14:04;;;;;;;;;;;21.20;67.00;;;;;;5024863;28;19924;-81
2022/08/27 10:16:42;;;;;;;;;;;21.10;68.20;;;;;;5028424;28;19967;-79
2022/08/27 10:19:10;;;;;;;;;;;21.20;66.20;;;;;;5029007;28;20298;-80
2022/08/27 10:21:43;;;;;;;;;;;21.20;66.10;;;;;;5031370;28;20266;-80
2022/08/27 10:24:25;;;;;;;;;;;21.30;66.70;;;;;;5029126;28;19913;-80
2022/08/27 10:26:57;;;;;;;;;;;21.40;65.80;;;;;;5032503;28;19913;-80
2022/08/27 10:29:45;;;;;;;;;;;21.60;65.10;;;;;;5028586;28;20339;-80
2022/08/27 10:32:21;;;;;;;;;;;21.60;64.50;;;;;;5025807;28;20393;-80
2022/08/27 10:34:50;;;;;;;;;;;21.50;63.80;;;;;;5026484;28;19913;-80
2022/08/27 10:37:25;;;;;;;;;;;21.50;64.10;;;;;;5028454;28;19959;-81
2022/08/27 10:39:55;;;;;;;;;;;21.80;62.60;;;;;;5028010;28;19937;-80
2022/08/27 10:42:25;;;;;;;;;;;21.80;63.40;;;;;;5029247;28;19991;-80
2022/08/27 10:45:09;;;;;;;;;;;21.80;64.60;;;;;;5029311;28;19914;-80
2022/08/27 10:47:38;;;;;;;;;;;22.00;62.70;;;;;;5029358;28;19925;-80
2022/08/27 10:50:16;;;;;;;;;;;21.70;62.80;;;;;;5022994;28;20456;-80
2022/08/27 10:52:41;;;;;;;;;;;21.70;64.10;;;;;;5029076;28;19973;-80
2022/08/27 10:55:18;;;;;;;;;;;21.80;64.20;;;;;;5029576;28;19963;-80
2022/08/27 10:57:50;;;;;;;;;;;21.80;63.60;;;;;;5023696;28;19928;-79
2022/08/27 11:00:20;;;;;;;;;;;22.10;62.30;;;;;;5025783;28;19968;-78
2022/08/27 11:02:52;;;;;;;;;;;22.10;61.90;;;;;;5018493;28;20552;-79
2022/08/27 11:05:20;;;;;;;;;;;22.10;61.70;;;;;;5027847;28;19913;-80
2022/08/27 11:07:51;;;;;;;;;;;21.90;62.60;;;;;;5024208;28;19928;-80
2022/08/27 11:10:25;;;;;;;;;;;22.10;61.50;;;;;;5022103;28;19917;-80
2022/08/27 11:12:52;;;;;;;;;;;22.20;62.20;;;;;;5028470;28;19913;-78
2022/08/27 11:15:21;;;;;;;;;;;22.30;61.80;;;;;;5029057;28;19948;-78
2022/08/27 11:17:59;;;;;;;;;;;22.50;61.00;;;;;;5026911;28;19920;-78
2022/08/27 11:20:29;;;;;;;;;;;22.40;61.70;;;;;;5023492;28;20378;-78
2022/08/27 11:22:55;;;;;;;;;;;22.50;60.70;;;;;;5027320;28;19917;-79
2022/08/27 11:25:20;;;;;;;;;;;22.60;59.10;;;;;;5027262;28;19913;-79
2022/08/27 11:27:47;;;;;;;;;;;22.60;59.30;;;;;;5031744;28;19967;-78
2022/08/27 11:30:24;;;;;;;;;;;22.50;60.30;;;;;;5031250;28;19913;-79
2022/08/27 11:33:08;;;;;;;;;;;22.60;59.60;;;;;;5025399;28;20096;-79
2022/08/27 11:35:52;;;;;;;;;;;22.80;59.80;;;;;;5048555;28;19913;-79
2022/08/27 11:38:18;;;;;;;;;;;22.80;57.00;;;;;;5022162;28;19913;-79
2022/08/27 11:40:49;;;;;;;;;;;22.60;57.60;;;;;;5024900;28;19986;-79
2022/08/27 11:43:17;;;;;;;;;;;22.60;58.60;;;;;;5028384;28;19919;-78
2022/08/27 11:45:56;;;;;;;;;;;22.90;56.50;;;;;;5026448;28;20089;-78
2022/08/27 11:48:24;;;;;;;;;;;22.80;57.10;;;;;;5029316;28;19916;-79
2022/08/27 11:50:54;;;;;;;;;;;23.00;56.80;;;;;;5026072;28;20004;-78
2022/08/27 11:53:24;;;;;;;;;;;22.80;57.50;;;;;;5027831;28;19917;-79
2022/08/27 11:55:49;;;;;;;;;;;23.00;56.50;;;;;;5028806;28;20347;-78
2022/08/27 11:58:23;;;;;;;;;;;23.00;57.90;;;;;;5029603;28;19917;-79
2022/08/27 12:00:49;;;;;;;;;;;22.80;57.30;;;;;;5027280;28;20370;-78
2022/08/27 12:03:17;;;;;;;;;;;23.00;54.90;;;;;;5029832;28;19935;-78
2022/08/27 12:05:44;;;;;;;;;;;22.80;56.90;;;;;;5026436;28;20442;-78
2022/08/27 12:08:28;;;;;;;;;;;22.80;56.10;;;;;;5032027;28;19914;-78
2022/08/27 12:10:54;;;;;;;;;;;22.60;56.10;;;;;;5031162;28;19959;-78
2022/08/27 12:13:23;;;;;;;;;;;22.50;55.90;;;;;;5027244;28;19956;-79
2022/08/27 12:15:59;;;;;;;;;;;22.70;57.00;;;;;;5023833;28;19913;-78
2022/08/27 12:18:35;;;;;;;;;;;22.70;57.50;;;;;;5030901;28;20334;-79
2022/08/27 12:21:14;;;;;;;;;;;22.80;55.50;;;;;;5029046;28;19917;-78
2022/08/27 12:23:59;;;;;;;;;;;22.70;56.40;;;;;;5027212;28;19917;-78
2022/08/27 12:26:24;;;;;;;;;;;22.80;57.20;;;;;;5043235;28;20474;-78
2022/08/27 12:28:50;;;;;;;;;;;22.80;56.30;;;;;;5021410;28;19921;-79
2022/08/27 12:31:18;;;;;;;;;;;22.80;55.70;;;;;;5029128;28;20377;-79
2022/08/27 12:33:49;;;;;;;;;;;22.70;55.60;;;;;;5022502;28;19973;-77
2022/08/27 12:36:16;;;;;;;;;;;22.60;58.00;;;;;;5029339;28;19913;-77
2022/08/27 12:38:55;;;;;;;;;;;22.60;56.70;;;;;;5027599;28;20003;-78
2022/08/27 12:41:25;;;;;;;;;;;22.60;56.20;;;;;;5019773;28;19913;-79
2022/08/27 12:44:00;;;;;;;;;;;22.30;57.50;;;;;;5027851;28;19913;-80
2022/08/27 12:46:27;;;;;;;;;;;22.30;57.90;;;;;;5024115;28;20028;-78
2022/08/27 12:49:00;;;;;;;;;;;22.50;57.30;;;;;;5043652;28;19917;-78
2022/08/27 12:51:36;;;;;;;;;;;22.50;56.80;;;;;;5027656;28;19913;-80
2022/08/27 12:54:31;;;;;;;;;;;22.50;56.50;;;;;;5031131;28;19917;-77
2022/08/27 12:57:19;;;;;;;;;;;22.60;56.50;;;;;;5015428;28;20521;-80
2022/08/27 12:59:47;;;;;;;;;;;22.60;57.20;;;;;;5032241;28;20008;-77
2022/08/27 13:02:15;;;;;;;;;;;22.70;56.50;;;;;;5026958;28;19924;-78
2022/08/27 13:04:41;;;;;;;;;;;22.60;56.80;;;;;;5025388;28;19976;-77
2022/08/27 13:07:07;;;;;;;;;;;22.70;56.90;;;;;;5028037;28;19970;-77
2022/08/27 13:09:34;;;;;;;;;;;22.80;55.10;;;;;;5031958;28;19909;-77
2022/08/27 13:12:02;;;;;;;;;;;22.50;55.80;;;;;;5032666;28;19932;-77
2022/08/27 13:14:33;;;;;;;;;;;22.50;55.80;;;;;;5027355;28;20012;-77
2022/08/27 13:17:10;;;;;;;;;;;22.50;56.40;;;;;;5025064;28;19933;-77
2022/08/27 13:19:41;;;;;;;;;;;22.60;56.70;;;;;;5029764;28;20044;-77
2022/08/27 13:22:07;;;;;;;;;;;22.70;56.60;;;;;;5027772;28;20385;-77
2022/08/27 13:24:35;;;;;;;;;;;22.60;56.30;;;;;;5030351;28;19921;-77
2022/08/27 13:27:01;;;;;;;;;;;22.80;54.90;;;;;;5033624;28;19921;-76
2022/08/27 13:29:27;;;;;;;;;;;22.70;55.80;;;;;;5034066;28;19909;-77
2022/08/27 13:31:53;;;;;;;;;;;22.70;55.30;;;;;;5029196;28;19917;-77
2022/08/27 13:34:23;;;;;;;;;;;22.90;54.90;;;;;;5029575;28;19920;-77
2022/08/27 13:36:57;;;;;;;;;;;22.90;54.80;;;;;;5031425;28;20346;-77
2022/08/27 13:39:23;;;;;;;;;;;22.80;55.20;;;;;;5041965;28;19913;-77
2022/08/27 13:41:49;;;;;;;;;;;22.90;54.00;;;;;;5031210;28;20011;-77
2022/08/27 13:44:20;;;;;;;;;;;22.80;55.30;;;;;;5031449;28;19925;-77
2022/08/27 13:46:50;;;;;;;;;;;22.80;55.70;;;;;;5030945;28;19917;-78
2022/08/27 13:49:21;;;;;;;;;;;22.70;54.80;;;;;;5029825;28;20330;-79
2022/08/27 13:51:47;;;;;;;;;;;22.70;56.20;;;;;;5031922;28;19960;-77
2022/08/27 13:54:14;;;;;;;;;;;22.90;55.00;;;;;;5021342;28;20633;-77
2022/08/27 13:56:40;;;;;;;;;;;22.70;55.50;;;;;;5026852;28;20461;-77
2022/08/27 13:59:22;;;;;;;;;;;22.70;55.90;;;;;;5029567;28;19952;-77
2022/08/27 14:01:54;;;;;;;;;;;22.90;54.50;;;;;;5039187;28;20336;-77
2022/08/27 14:04:23;;;;;;;;;;;23.30;53.00;;;;;;5024699;28;20016;-76
2022/08/27 14:06:49;;;;;;;;;;;23.10;54.30;;;;;;5028448;28;19999;-78
2022/08/27 14:09:25;;;;;;;;;;;22.90;56.50;;;;;;5019215;28;19921;-74
2022/08/27 14:11:58;;;;;;;;;;;22.80;56.20;;;;;;5053647;22;19913;-84
2022/08/27 14:14:24;;;;;;;;;;;22.90;55.80;;;;;;5033116;28;20011;-83
2022/08/27 14:17:00;;;;;;;;;;;22.70;56.50;;;;;;5031613;28;19940;-82
2022/08/27 14:19:25;;;;;;;;;;;22.60;55.80;;;;;;5053432;28;19913;-85
2022/08/27 14:21:51;;;;;;;;;;;22.60;56.90;;;;;;5052281;28;19917;-82
2022/08/27 14:24:18;;;;;;;;;;;22.50;56.70;;;;;;5016618;28;19991;-83
2022/08/27 14:26:48;;;;;;;;;;;22.20;58.00;;;;;;5054864;28;19917;-84
2022/08/27 14:29:16;;;;;;;;;;;22.20;58.40;;;;;;5038237;28;19913;-85
2022/08/27 14:31:42;;;;;;;;;;;22.40;57.10;;;;;;5033105;28;19933;-84